Time;durP1;ratioP1;P1;durP2;ratioP2;P2;SDS_P1;SDS_P2;PMS_P1;PMS_P2;Temp;Humidity;BMP_temperature;BMP_pressure;BME280_temperature;BME280_humidity;BME280_pressure;Samples;Min_cycle;Max_cycle;Signal;HPM_P1;HPM_P2
2023/08/13 00:02:13;;;;;;;8.10;2.63;;;21.10;99.90;;;;;;4900255;28;20503;-67
2023/08/13 00:04:40;;;;;;;3.87;2.73;;;21.10;99.90;;;;;;4899588;28;20471;-66
2023/08/13 00:07:07;;;;;;;5.10;2.80;;;21.20;99.90;;;;;;4908572;28;20971;-66
2023/08/13 00:09:34;;;;;;;2.90;2.53;;;21.20;99.90;;;;;;4895108;28;20482;-67
2023/08/13 00:12:01;;;;;;;2.60;2.40;;;21.20;99.90;;;;;;4907198;29;21017;-67
2023/08/13 00:14:28;;;;;;;4.10;3.30;;;21.20;99.90;;;;;;4909538;28;20674;-66
2023/08/13 00:16:56;;;;;;;3.83;3.00;;;21.00;99.90;;;;;;4885179;28;20935;-66
2023/08/13 00:19:23;;;;;;;3.30;2.90;;;20.90;99.90;;;;;;4957047;28;20480;-66
2023/08/13 00:21:50;;;;;;;4.10;2.77;;;20.90;99.90;;;;;;4895916;28;20491;-66
2023/08/13 00:24:16;;;;;;;3.70;2.23;;;20.90;99.90;;;;;;4908503;28;20958;-67
2023/08/13 00:26:44;;;;;;;4.80;2.73;;;20.90;99.90;;;;;;4910525;29;20488;-67
2023/08/13 00:29:11;;;;;;;4.03;2.20;;;20.90;99.90;;;;;;4906662;28;20572;-66
2023/08/13 00:31:38;;;;;;;5.53;2.70;;;20.90;99.90;;;;;;4900966;28;20492;-66
2023/08/13 00:34:06;;;;;;;4.60;3.40;;;20.90;99.90;;;;;;4909994;28;20741;-66
2023/08/13 00:36:33;;;;;;;5.90;2.60;;;20.80;99.90;;;;;;4894218;28;20873;-66
2023/08/13 00:38:59;;;;;;;5.00;3.23;;;20.90;99.90;;;;;;4907108;28;20468;-65
2023/08/13 00:41:26;;;;;;;22.27;2.97;;;20.90;99.90;;;;;;4906276;28;20595;-66
2023/08/13 00:43:53;;;;;;;4.10;2.47;;;20.90;99.90;;;;;;4899168;28;20489;-65
2023/08/13 00:46:20;;;;;;;6.30;2.80;;;20.80;99.90;;;;;;4891762;28;20571;-66
2023/08/13 00:48:48;;;;;;;4.83;2.70;;;20.70;99.90;;;;;;4906479;29;20461;-65
2023/08/13 00:51:22;;;;;;;6.50;2.50;;;20.80;99.90;;;;;;4894474;28;20484;-65
2023/08/13 00:53:49;;;;;;;5.13;2.90;;;20.80;99.90;;;;;;4895631;28;20584;-65
2023/08/13 00:56:16;;;;;;;4.27;2.90;;;20.90;99.90;;;;;;4897781;28;20488;-65
2023/08/13 00:58:44;;;;;;;5.10;3.30;;;20.80;99.90;;;;;;4904981;28;20863;-65
2023/08/13 01:01:12;;;;;;;14.73;4.50;;;20.70;99.90;;;;;;4896199;28;20531;-65
2023/08/13 01:06:21;;;;;;;4.60;3.20;;;20.70;99.90;;;;;;5006033;28;20464;-65
2023/08/13 01:09:00;;;;;;;6.63;2.70;;;20.70;99.90;;;;;;5010613;28;20455;-65
2023/08/13 01:11:37;;;;;;;3.97;2.23;;;20.70;99.90;;;;;;4997091;28;20518;-64
2023/08/13 01:14:12;;;;;;;3.40;2.70;;;20.70;99.90;;;;;;5003167;28;20581;-64
2023/08/13 01:16:42;;;;;;;3.27;2.50;;;20.70;99.90;;;;;;5000548;28;20461;-65
2023/08/13 01:19:12;;;;;;;7.33;2.80;;;20.70;99.90;;;;;;5005307;28;20459;-65
2023/08/13 01:21:40;;;;;;;4.43;2.60;;;20.50;99.90;;;;;;5010022;28;20907;-65
2023/08/13 01:24:09;;;;;;;4.50;2.23;;;;;;;;;;5006395;28;20570;-65
2023/08/13 01:26:45;;;;;;;3.20;2.17;;;20.40;99.90;;;;;;5011732;28;21007;-65
2023/08/13 01:29:19;;;;;;;2.93;2.50;;;20.30;99.90;;;;;;4991757;28;20542;-65
2023/08/13 01:31:49;;;;;;;6.90;2.37;;;20.20;99.90;;;;;;5006960;28;20571;-65
2023/08/13 01:34:18;;;;;;;9.40;3.40;;;20.10;99.90;;;;;;5011081;28;20492;-65
2023/08/13 01:36:46;;;;;;;3.63;3.10;;;20.10;99.90;;;;;;5010367;28;20476;-65
2023/08/13 01:39:15;;;;;;;3.83;3.17;;;20.10;99.90;;;;;;5007280;28;20565;-65
2023/08/13 01:41:46;;;;;;;5.03;2.60;;;20.00;99.90;;;;;;5010168;28;20485;-65
2023/08/13 01:44:13;;;;;;;13.53;3.77;;;19.90;99.90;;;;;;5010328;28;20498;-64
2023/08/13 01:46:40;;;;;;;3.03;2.73;;;19.90;99.90;;;;;;4982503;28;20834;-65
2023/08/13 01:49:07;;;;;;;10.80;2.70;;;19.80;99.90;;;;;;5004968;28;20779;-66
2023/08/13 01:51:34;;;;;;;6.47;2.37;;;19.80;99.90;;;;;;5006600;28;20584;-65
2023/08/13 01:54:00;;;;;;;7.70;3.20;;;19.90;99.90;;;;;;5012857;28;20960;-65
2023/08/13 01:56:29;;;;;;;6.53;2.67;;;19.90;99.90;;;;;;5010815;28;20483;-65
2023/08/13 01:58:56;;;;;;;3.37;2.77;;;20.00;99.90;;;;;;5000596;28;20571;-65
2023/08/13 02:01:23;;;;;;;5.17;2.80;;;20.10;99.90;;;;;;5005214;28;20534;-64
2023/08/13 02:03:50;;;;;;;6.10;3.00;;;20.10;99.90;;;;;;4977505;28;20546;-65
2023/08/13 02:06:17;;;;;;;7.20;3.40;;;20.20;99.90;;;;;;5007915;28;20493;-65
2023/08/13 02:08:44;;;;;;;4.93;3.13;;;20.10;99.90;;;;;;5010708;28;20479;-65
2023/08/13 02:11:11;;;;;;;7.17;3.60;;;20.00;99.90;;;;;;5010163;28;20494;-64
2023/08/13 02:13:39;;;;;;;4.70;3.23;;;20.00;99.90;;;;;;4984722;28;20835;-64
2023/08/13 02:16:06;;;;;;;4.93;2.87;;;20.00;99.90;;;;;;4972387;28;20509;-65
2023/08/13 02:18:33;;;;;;;5.97;3.00;;;19.90;99.90;;;;;;4998603;28;20498;-65
2023/08/13 02:21:00;;;;;;;10.07;2.50;;;19.90;99.90;;;;;;4990527;28;20571;-65
2023/08/13 02:23:27;;;;;;;4.00;2.33;;;19.90;99.90;;;;;;5008519;28;20771;-64
2023/08/13 02:25:54;;;;;;;3.80;2.83;;;20.00;99.90;;;;;;5009912;28;20575;-65
2023/08/13 02:28:21;;;;;;;6.20;2.60;;;19.90;99.90;;;;;;5008617;28;20751;-64
2023/08/13 02:30:51;;;;;;;9.60;3.07;;;19.80;99.90;;;;;;4987646;28;20488;-65
2023/08/13 02:33:18;;;;;;;4.83;2.90;;;19.80;99.90;;;;;;4961387;28;20989;-64
2023/08/13 02:35:45;;;;;;;3.03;2.73;;;19.60;99.90;;;;;;4986711;28;20490;-64
2023/08/13 02:38:12;;;;;;;6.23;2.30;;;19.60;99.90;;;;;;4983617;28;20481;-66
2023/08/13 02:40:39;;;;;;;4.50;2.50;;;19.70;99.90;;;;;;4995288;28;20479;-66
2023/08/13 02:43:06;;;;;;;5.50;3.60;;;19.70;99.90;;;;;;4998890;28;20958;-66
2023/08/13 02:45:33;;;;;;;4.03;2.67;;;19.80;99.90;;;;;;5001882;28;20473;-66
2023/08/13 02:48:01;;;;;;;7.70;3.03;;;19.80;99.90;;;;;;5006928;28;20703;-66
2023/08/13 02:50:28;;;;;;;9.50;4.03;;;19.90;99.90;;;;;;5006230;28;20484;-66
2023/08/13 02:52:55;;;;;;;8.63;3.87;;;19.90;99.90;;;;;;4993274;28;20478;-67
2023/08/13 02:55:22;;;;;;;8.33;4.03;;;20.00;99.90;;;;;;5005399;28;20567;-67
2023/08/13 02:57:49;;;;;;;6.93;3.37;;;20.00;99.90;;;;;;5007270;28;20490;-67
2023/08/13 03:00:16;;;;;;;13.73;4.10;;;20.10;99.90;;;;;;4994790;28;20492;-67
2023/08/13 03:02:43;;;;;;;5.80;3.90;;;20.10;99.90;;;;;;4999680;28;20586;-66
2023/08/13 03:05:11;;;;;;;5.17;3.90;;;20.00;99.90;;;;;;4987354;28;20486;-67
2023/08/13 03:07:39;;;;;;;5.63;3.97;;;20.00;99.90;;;;;;5005305;28;20479;-67
2023/08/13 03:10:06;;;;;;;11.60;3.60;;;19.90;99.90;;;;;;4994284;28;20591;-67
2023/08/13 03:12:33;;;;;;;5.73;3.37;;;19.90;99.90;;;;;;5007042;28;20491;-67
2023/08/13 03:15:00;;;;;;;8.90;4.50;;;19.90;99.90;;;;;;5009075;28;20479;-67
2023/08/13 03:17:27;;;;;;;4.43;2.33;;;19.80;99.90;;;;;;5007117;28;20482;-67
2023/08/13 03:19:55;;;;;;;4.10;2.47;;;19.80;99.90;;;;;;4986641;28;20487;-67
2023/08/13 03:22:24;;;;;;;6.03;2.73;;;19.80;99.90;;;;;;5001254;28;21056;-66
2023/08/13 03:24:51;;;;;;;3.73;2.40;;;19.80;99.90;;;;;;4984901;28;20580;-67
2023/08/13 03:27:18;;;;;;;8.20;2.53;;;19.80;99.90;;;;;;4973306;28;20868;-67
2023/08/13 03:29:45;;;;;;;5.10;2.50;;;19.80;99.90;;;;;;4994458;28;20481;-67
2023/08/13 03:32:12;;;;;;;4.00;2.30;;;19.80;99.90;;;;;;5009958;28;20475;-67
2023/08/13 03:34:38;;;;;;;3.30;2.30;;;19.80;99.90;;;;;;5013258;28;20487;-67
2023/08/13 03:37:05;;;;;;;9.30;2.80;;;19.80;99.90;;;;;;5005835;28;20477;-67
2023/08/13 03:39:34;;;;;;;5.70;2.80;;;19.80;99.90;;;;;;5006690;28;20574;-67
2023/08/13 03:42:00;;;;;;;10.40;3.47;;;19.70;99.90;;;;;;4999511;28;20925;-67
2023/08/13 03:44:27;;;;;;;13.53;4.37;;;19.70;99.90;;;;;;5014025;28;20477;-67
2023/08/13 03:46:54;;;;;;;7.03;3.80;;;19.60;99.90;;;;;;5008822;28;20869;-67
2023/08/13 03:49:21;;;;;;;10.50;3.30;;;19.60;99.90;;;;;;5015923;28;20489;-67
2023/08/13 03:51:48;;;;;;;8.20;3.40;;;19.50;99.90;;;;;;5017158;28;20480;-67
2023/08/13 03:54:15;;;;;;;5.63;3.90;;;19.40;99.90;;;;;;5015990;28;20578;-67
2023/08/13 03:56:43;;;;;;;7.87;3.90;;;19.20;99.90;;;;;;5017738;28;20999;-67
2023/08/13 03:59:10;;;;;;;4.50;3.60;;;19.20;99.90;;;;;;4998517;28;20764;-67
2023/08/13 04:01:37;;;;;;;14.33;4.20;;;19.10;99.90;;;;;;5015949;28;20502;-67
2023/08/13 04:04:04;;;;;;;8.77;4.63;;;18.90;99.90;;;;;;5016286;28;21174;-67
2023/08/13 04:06:31;;;;;;;13.03;3.60;;;18.90;99.90;;;;;;5017365;28;20571;-67
2023/08/13 04:08:58;;;;;;;6.73;4.03;;;18.90;99.90;;;;;;5015380;28;20480;-67
2023/08/13 04:11:25;;;;;;;5.27;3.50;;;18.90;99.90;;;;;;5011429;28;20583;-67
2023/08/13 04:13:53;;;;;;;4.43;3.83;;;18.90;99.90;;;;;;5017150;28;20486;-67
2023/08/13 04:16:21;;;;;;;8.03;3.47;;;18.90;99.90;;;;;;5017712;28;20606;-67
2023/08/13 04:18:50;;;;;;;8.33;3.77;;;18.90;99.90;;;;;;5016369;28;20487;-67
2023/08/13 04:21:17;;;;;;;6.10;3.93;;;18.90;99.90;;;;;;5016221;28;20995;-67
2023/08/13 04:23:44;;;;;;;7.77;3.30;;;18.80;99.90;;;;;;5016878;28;20509;-67
2023/08/13 04:26:11;;;;;;;13.83;3.40;;;18.80;99.90;;;;;;5018062;28;20492;-67
2023/08/13 04:28:38;;;;;;;7.63;3.80;;;18.80;99.90;;;;;;5005054;28;20486;-67
2023/08/13 04:31:06;;;;;;;3.73;3.37;;;18.90;99.90;;;;;;5007346;28;20902;-67
2023/08/13 04:33:33;;;;;;;6.90;2.90;;;18.90;99.90;;;;;;5015613;28;20468;-67
2023/08/13 04:36:00;;;;;;;6.50;3.47;;;;;;;;;;5008460;28;20497;-66
2023/08/13 04:38:27;;;;;;;6.73;4.27;;;18.90;99.90;;;;;;5017077;28;20548;-67
2023/08/13 04:40:54;;;;;;;9.67;4.80;;;18.80;99.90;;;;;;5014930;28;20872;-67
2023/08/13 04:43:21;;;;;;;4.57;3.97;;;18.80;99.90;;;;;;5014887;28;20583;-67
2023/08/13 04:45:48;;;;;;;6.43;4.20;;;18.80;99.90;;;;;;5004374;28;20592;-67
2023/08/13 04:48:18;;;;;;;9.60;4.30;;;18.80;99.90;;;;;;4988974;28;20473;-67
2023/08/13 04:50:45;;;;;;;5.60;4.50;;;18.90;99.90;;;;;;5000855;28;20492;-67
2023/08/13 04:53:12;;;;;;;5.23;4.30;;;18.90;99.90;;;;;;5005285;28;20852;-66
2023/08/13 04:55:39;;;;;;;7.17;3.90;;;18.90;99.90;;;;;;5006852;28;20576;-66
2023/08/13 04:58:06;;;;;;;6.10;4.20;;;19.00;99.90;;;;;;5014793;28;20607;-66
2023/08/13 05:00:33;;;;;;;9.83;3.40;;;19.00;99.90;;;;;;5014139;28;20479;-67
2023/08/13 05:03:00;;;;;;;5.47;3.80;;;19.00;99.90;;;;;;5016700;28;20841;-66
2023/08/13 05:05:28;;;;;;;4.37;3.33;;;19.00;99.90;;;;;;5015563;28;20511;-66
2023/08/13 05:07:55;;;;;;;3.93;3.53;;;19.10;99.90;;;;;;5016065;28;20507;-67
2023/08/13 05:10:22;;;;;;;4.00;3.30;;;19.20;99.90;;;;;;5012717;28;20873;-66
2023/08/13 05:12:49;;;;;;;8.70;3.40;;;19.20;99.90;;;;;;5014094;28;20592;-66
2023/08/13 05:15:16;;;;;;;3.90;3.10;;;19.20;99.90;;;;;;5016086;28;20474;-66
2023/08/13 05:17:43;;;;;;;5.30;4.20;;;19.30;99.90;;;;;;5015903;28;20473;-67
2023/08/13 05:20:10;;;;;;;11.23;3.80;;;19.40;99.90;;;;;;5014883;28;20574;-66
2023/08/13 05:22:38;;;;;;;10.50;3.60;;;19.40;99.90;;;;;;5016632;28;20487;-67
2023/08/13 05:25:06;;;;;;;8.40;4.07;;;19.40;99.90;;;;;;5016061;28;20477;-67
2023/08/13 05:27:33;;;;;;;4.90;3.60;;;19.50;99.90;;;;;;5008452;28;20486;-67
2023/08/13 05:30:00;;;;;;;4.53;3.50;;;19.60;99.90;;;;;;5014249;28;20479;-67
2023/08/13 05:32:28;;;;;;;9.70;3.30;;;19.60;99.90;;;;;;5014201;28;20475;-67
2023/08/13 05:34:55;;;;;;;4.53;3.73;;;19.70;99.90;;;;;;5016407;28;20911;-67
2023/08/13 05:37:21;;;;;;;9.17;3.80;;;19.70;99.90;;;;;;5015621;28;20896;-67
2023/08/13 05:39:50;;;;;;;5.50;4.57;;;19.80;99.90;;;;;;5009609;28;20499;-68
2023/08/13 05:42:17;;;;;;;6.90;4.40;;;20.00;99.90;;;;;;4997810;28;21129;-67
2023/08/13 05:44:44;;;;;;;6.10;3.17;;;19.90;99.90;;;;;;5008814;28;21332;-67
2023/08/13 05:47:11;;;;;;;6.53;3.87;;;20.10;99.90;;;;;;4996272;28;20485;-66
2023/08/13 05:49:38;;;;;;;5.20;4.07;;;20.20;99.90;;;;;;5008987;28;20512;-67
2023/08/13 05:52:05;;;;;;;4.60;3.67;;;20.20;99.90;;;;;;4997270;28;20566;-67
2023/08/13 05:54:32;;;;;;;6.00;3.73;;;20.30;99.90;;;;;;5005627;28;20558;-67
2023/08/13 05:57:01;;;;;;;29.83;4.50;;;20.30;99.90;;;;;;4992938;28;20580;-67
2023/08/13 05:59:28;;;;;;;5.27;4.40;;;20.30;99.90;;;;;;4988436;28;20866;-67
2023/08/13 06:01:55;;;;;;;5.13;3.80;;;20.40;99.90;;;;;;5001199;28;20484;-67
2023/08/13 06:04:22;;;;;;;12.43;4.50;;;20.30;99.90;;;;;;5005912;28;20491;-67
2023/08/13 06:06:49;;;;;;;11.43;5.00;;;20.30;99.90;;;;;;5010843;28;20504;-67
2023/08/13 06:09:16;;;;;;;6.73;4.80;;;20.40;99.90;;;;;;5010242;28;21175;-67
2023/08/13 06:11:43;;;;;;;5.93;4.50;;;20.30;99.90;;;;;;5014231;28;20590;-67
2023/08/13 06:14:11;;;;;;;10.50;4.60;;;20.50;99.90;;;;;;5011984;28;20606;-67
2023/08/13 06:16:38;;;;;;;7.40;4.70;;;20.70;99.90;;;;;;5002981;28;20598;-65
2023/08/13 06:19:05;;;;;;;7.00;4.57;;;20.80;99.90;;;;;;5014484;28;20564;-65
2023/08/13 06:21:32;;;;;;;7.00;4.67;;;20.80;99.90;;;;;;5014676;28;20474;-65
2023/08/13 06:23:58;;;;;;;5.90;4.20;;;20.90;99.90;;;;;;5010182;28;20992;-64
2023/08/13 06:26:25;;;;;;;8.00;4.60;;;21.00;99.90;;;;;;5012782;28;20488;-65
2023/08/13 06:28:52;;;;;;;7.30;4.20;;;21.00;99.90;;;;;;5010920;28;20483;-65
2023/08/13 06:31:21;;;;;;;8.33;4.77;;;21.00;99.90;;;;;;5007050;28;20572;-65
2023/08/13 06:33:47;;;;;;;5.93;4.13;;;21.10;99.90;;;;;;5015616;28;20570;-64
2023/08/13 06:36:14;;;;;;;8.03;5.10;;;21.30;99.90;;;;;;5012577;28;20907;-65
2023/08/13 06:38:41;;;;;;;14.83;4.57;;;21.30;99.90;;;;;;5013555;28;20494;-64
2023/08/13 06:41:08;;;;;;;5.73;4.70;;;21.40;99.90;;;;;;5005063;28;20856;-65
2023/08/13 06:43:35;;;;;;;5.40;4.13;;;21.50;99.90;;;;;;5005324;28;20962;-64
2023/08/13 06:46:03;;;;;;;6.90;4.47;;;21.60;99.90;;;;;;5011836;28;20567;-64
2023/08/13 06:48:33;;;;;;;10.10;4.00;;;21.80;99.90;;;;;;5001753;28;20970;-65
2023/08/13 06:51:01;;;;;;;4.70;3.60;;;21.80;99.90;;;;;;5002991;28;20476;-65
2023/08/13 06:53:27;;;;;;;7.20;3.70;;;22.00;99.90;;;;;;5004686;28;20773;-64
2023/08/13 06:55:54;;;;;;;4.80;3.87;;;22.10;99.90;;;;;;5015959;28;20961;-64
2023/08/13 06:58:23;;;;;;;3.67;3.30;;;;;;;;;;4992606;28;20562;-65
2023/08/13 07:00:50;;;;;;;3.87;3.57;;;22.30;99.90;;;;;;5002413;28;20489;-65
2023/08/13 07:03:17;;;;;;;8.10;3.93;;;22.30;99.90;;;;;;5005631;28;20474;-64
2023/08/13 07:05:45;;;;;;;6.63;3.20;;;22.50;99.90;;;;;;5012173;28;20492;-64
2023/08/13 07:08:12;;;;;;;7.13;3.20;;;22.80;99.90;;;;;;5011255;28;20496;-67
2023/08/13 07:10:39;;;;;;;5.87;2.90;;;22.80;99.90;;;;;;5014241;28;20823;-66
2023/08/13 07:13:06;;;;;;;6.33;2.80;;;23.00;99.90;;;;;;5008071;28;20497;-66
2023/08/13 07:15:33;;;;;;;9.40;2.63;;;23.10;99.90;;;;;;5005730;28;20508;-67
2023/08/13 07:18:00;;;;;;;4.20;2.00;;;23.10;99.90;;;;;;4989711;28;20942;-66
2023/08/13 07:20:27;;;;;;;3.33;2.70;;;23.20;99.90;;;;;;5008164;28;20481;-66
2023/08/13 07:22:58;;;;;;;2.87;2.33;;;23.40;99.90;;;;;;5012307;28;20495;-67
2023/08/13 07:25:25;;;;;;;3.27;2.00;;;23.40;99.90;;;;;;5006995;28;20484;-67
2023/08/13 07:27:53;;;;;;;3.67;2.50;;;23.40;99.90;;;;;;5002173;28;20485;-66
2023/08/13 07:30:20;;;;;;;7.20;2.70;;;23.40;99.90;;;;;;5014832;28;20708;-67
2023/08/13 07:32:47;;;;;;;3.40;2.00;;;23.50;99.90;;;;;;5009697;28;20560;-68
2023/08/13 07:35:14;;;;;;;2.67;2.10;;;23.40;99.90;;;;;;5006104;28;20484;-66
2023/08/13 07:37:41;;;;;;;6.10;2.83;;;23.50;99.90;;;;;;5013129;28;20487;-65
2023/08/13 07:40:12;;;;;;;2.57;1.73;;;23.50;99.90;;;;;;4996496;28;20580;-65
2023/08/13 07:42:39;;;;;;;3.73;2.03;;;23.60;99.90;;;;;;5000829;28;20786;-65
2023/08/13 07:45:07;;;;;;;3.73;2.07;;;23.70;99.90;;;;;;5010356;28;20860;-65
2023/08/13 07:47:34;;;;;;;5.63;3.00;;;23.60;99.90;;;;;;4997163;28;20450;-65
2023/08/13 07:50:04;;;;;;;4.70;2.20;;;23.60;99.90;;;;;;5007516;28;20842;-65
2023/08/13 07:52:34;;;;;;;6.73;2.20;;;23.60;99.90;;;;;;4997236;28;20888;-64
2023/08/13 07:55:01;;;;;;;5.30;2.80;;;23.60;99.90;;;;;;5009421;28;20629;-65
2023/08/13 07:57:30;;;;;;;3.60;2.07;;;23.60;99.90;;;;;;5009545;28;20454;-64
2023/08/13 07:59:57;;;;;;;3.83;1.90;;;23.70;99.90;;;;;;5016977;28;20559;-65
2023/08/13 08:02:24;;;;;;;9.87;4.93;;;23.80;99.90;;;;;;4999633;28;21102;-64
2023/08/13 08:04:51;;;;;;;4.20;2.90;;;23.90;99.90;;;;;;5021033;28;21029;-64
2023/08/13 08:07:19;;;;;;;3.87;2.27;;;23.90;99.90;;;;;;5004877;28;20467;-65
2023/08/13 08:09:46;;;;;;;2.77;2.03;;;24.00;99.90;;;;;;5013162;28;20475;-64
2023/08/13 08:12:13;;;;;;;2.77;1.90;;;24.00;99.90;;;;;;4995752;28;20461;-64
2023/08/13 08:14:42;;;;;;;7.90;2.13;;;24.00;99.90;;;;;;5010134;28;20477;-65
2023/08/13 08:17:09;;;;;;;3.60;1.90;;;24.10;99.90;;;;;;4996787;28;20545;-67
2023/08/13 08:19:36;;;;;;;7.10;2.20;;;24.00;99.90;;;;;;4990864;28;21062;-67
2023/08/13 08:22:03;;;;;;;2.70;2.50;;;24.10;99.90;;;;;;5008133;28;21103;-67
2023/08/13 08:24:30;;;;;;;7.43;3.00;;;24.10;99.90;;;;;;4997917;28;20488;-67
2023/08/13 08:26:57;;;;;;;5.00;2.03;;;24.10;99.90;;;;;;5011408;28;20461;-67
2023/08/13 08:29:24;;;;;;;4.50;2.00;;;24.00;99.90;;;;;;5009097;28;20480;-67
2023/08/13 08:31:52;;;;;;;4.13;2.23;;;24.10;99.90;;;;;;4994892;28;20448;-67
2023/08/13 08:34:19;;;;;;;6.50;2.50;;;24.20;99.90;;;;;;4998659;28;20836;-67
2023/08/13 08:36:46;;;;;;;6.80;1.90;;;24.20;99.90;;;;;;4992689;28;20683;-67
2023/08/13 08:39:13;;;;;;;3.13;2.10;;;24.30;99.90;;;;;;5012114;28;20456;-67
2023/08/13 08:41:46;;;;;;;7.73;2.37;;;24.60;99.90;;;;;;5005803;28;20889;-67
2023/08/13 08:44:19;;;;;;;8.20;2.30;;;24.70;99.90;;;;;;5000122;28;20497;-67
2023/08/13 08:46:48;;;;;;;3.87;2.00;;;24.80;99.90;;;;;;5015517;28;20526;-68
2023/08/13 08:49:17;;;;;;;6.43;2.23;;;25.20;99.90;;;;;;5014487;28;20487;-67
2023/08/13 08:51:45;;;;;;;5.60;2.17;;;25.30;99.90;;;;;;5011462;28;20488;-67
2023/08/13 08:54:12;;;;;;;10.13;2.27;;;25.40;99.90;;;;;;5010175;28;20482;-67
2023/08/13 08:56:39;;;;;;;3.27;2.07;;;25.40;99.90;;;;;;5010659;28;20959;-65
2023/08/13 08:59:06;;;;;;;4.87;2.03;;;25.30;99.90;;;;;;5008895;28;20451;-65
2023/08/13 09:01:33;;;;;;;5.33;1.80;;;25.30;99.90;;;;;;5013968;28;20542;-64
2023/08/13 09:04:01;;;;;;;4.63;1.90;;;25.40;99.90;;;;;;4999439;28;20500;-65
2023/08/13 09:06:57;;;;;;;3.10;2.13;;;25.40;99.70;;;;;;5014448;28;20452;-65
2023/08/13 09:09:25;;;;;;;5.03;2.17;;;25.50;99.30;;;;;;4971863;28;21375;-65
2023/08/13 09:11:53;;;;;;;2.90;2.00;;;25.40;99.90;;;;;;5011088;28;20919;-64
2023/08/13 09:14:20;;;;;;;2.27;1.57;;;25.20;97.80;;;;;;4999967;28;20470;-64
2023/08/13 09:16:48;;;;;;;3.63;2.20;;;25.20;99.00;;;;;;5008053;28;20451;-65
2023/08/13 09:19:15;;;;;;;9.87;2.23;;;25.20;99.90;;;;;;4994683;28;21049;-65
2023/08/13 09:21:50;;;;;;;5.90;2.53;;;25.50;99.90;;;;;;4981263;28;20542;-65
2023/08/13 09:24:18;;;;;;;5.20;2.10;;;25.60;99.70;;;;;;5006697;28;20442;-65
2023/08/13 09:26:46;;;;;;;6.10;1.60;;;25.60;99.90;;;;;;4992174;28;20458;-64
2023/08/13 09:29:13;;;;;;;10.60;2.07;;;25.70;99.90;;;;;;5003412;28;20491;-65
2023/08/13 09:31:41;;;;;;;2.70;1.60;;;25.80;99.10;;;;;;5013004;28;20552;-65
2023/08/13 09:34:08;;;;;;;7.53;2.23;;;25.70;99.40;;;;;;4997261;28;20567;-65
2023/08/13 09:36:35;;;;;;;3.10;1.50;;;25.70;99.90;;;;;;5005628;28;20485;-65
2023/08/13 09:39:02;;;;;;;2.83;2.00;;;25.70;99.00;;;;;;4991855;28;20900;-67
2023/08/13 09:41:31;;;;;;;5.30;1.67;;;25.70;99.50;;;;;;5018486;28;20900;-67
2023/08/13 09:44:03;;;;;;;7.10;2.50;;;25.70;99.90;;;;;;5007416;28;21006;-67
2023/08/13 09:46:32;;;;;;;4.47;1.60;;;25.70;99.90;;;;;;5008003;28;20447;-67
2023/08/13 09:49:01;;;;;;;4.67;1.97;;;25.70;99.80;;;;;;4998816;28;20569;-67
2023/08/13 09:51:32;;;;;;;7.00;3.00;;;25.70;98.50;;;;;;4991509;28;20459;-67
2023/08/13 09:54:04;;;;;;;7.50;2.27;;;25.60;98.00;;;;;;4998579;28;20465;-67
2023/08/13 09:56:33;;;;;;;3.17;2.00;;;25.70;98.80;;;;;;4993893;28;20455;-67
2023/08/13 09:59:01;;;;;;;4.93;1.70;;;25.70;98.40;;;;;;5005111;28;20516;-67
2023/08/13 10:01:29;;;;;;;2.43;1.67;;;25.80;98.70;;;;;;5001596;28;20473;-67
2023/08/13 10:03:57;;;;;;;3.87;2.00;;;25.80;99.40;;;;;;5007310;28;20445;-67
2023/08/13 10:06:24;;;;;;;3.23;2.10;;;25.80;99.40;;;;;;4986121;28;20491;-67
2023/08/13 10:08:52;;;;;;;3.50;1.70;;;25.90;98.10;;;;;;5001574;28;20473;-67
2023/08/13 10:11:20;;;;;;;3.67;1.80;;;26.20;97.70;;;;;;4995377;28;20866;-66
2023/08/13 10:13:49;;;;;;;4.83;1.70;;;26.50;97.90;;;;;;4993610;28;20487;-67
2023/08/13 10:16:18;;;;;;;2.87;1.43;;;26.50;97.70;;;;;;4996430;28;20455;-70
2023/08/13 10:18:47;;;;;;;2.93;1.50;;;26.50;96.30;;;;;;4999695;28;20549;-67
2023/08/13 10:21:14;;;;;;;3.20;1.77;;;26.60;97.30;;;;;;5003946;28;20936;-67
2023/08/13 10:23:41;;;;;;;6.47;1.77;;;26.80;97.50;;;;;;5013010;28;20845;-67
2023/08/13 10:26:09;;;;;;;3.80;1.50;;;26.80;97.40;;;;;;4997013;28;20818;-67
2023/08/13 10:28:36;;;;;;;3.30;1.97;;;27.00;96.80;;;;;;4996909;28;20712;-67
2023/08/13 10:31:32;;;;;;;4.67;1.70;;;27.10;96.70;;;;;;5002400;28;20550;-67
2023/08/13 10:34:07;;;;;;;2.97;1.57;;;27.00;96.00;;;;;;5005180;28;20480;-67
2023/08/13 10:36:51;;;;;;;3.63;1.57;;;26.70;96.40;;;;;;4993421;28;21002;-67
2023/08/13 10:39:35;;;;;;;5.97;1.40;;;26.70;96.30;;;;;;5000023;28;20865;-67
2023/08/13 10:42:04;;;;;;;4.93;2.07;;;26.60;96.00;;;;;;4994301;28;20830;-67
2023/08/13 10:44:32;;;;;;;4.57;2.00;;;26.60;96.30;;;;;;5012461;28;20485;-67
2023/08/13 10:47:02;;;;;;;6.30;1.70;;;26.60;96.20;;;;;;5004026;28;20499;-65
2023/08/13 10:49:29;;;;;;;4.93;1.80;;;26.60;97.60;;;;;;4997568;28;20960;-65
2023/08/13 10:52:01;;;;;;;2.53;1.63;;;26.50;97.20;;;;;;5010839;28;20583;-65
2023/08/13 10:54:28;;;;;;;6.30;2.50;;;26.40;96.70;;;;;;5001944;28;20512;-65
2023/08/13 10:56:58;;;;;;;5.97;2.63;;;26.40;97.00;;;;;;5006684;28;20519;-65
2023/08/13 10:59:32;;;;;;;4.30;2.40;;;26.40;95.80;;;;;;4995031;28;20606;-65
2023/08/13 11:02:17;;;;;;;7.53;1.70;;;26.40;95.80;;;;;;5009429;28;21031;-65
2023/08/13 11:04:45;;;;;;;2.87;1.57;;;26.70;96.30;;;;;;5017325;28;20846;-65
2023/08/13 11:07:13;;;;;;;4.73;1.80;;;27.10;96.50;;;;;;5003471;28;20453;-64
2023/08/13 11:09:43;;;;;;;4.60;1.90;;;;;;;;;;5007485;28;20497;-66
2023/08/13 11:12:11;;;;;;;3.73;1.67;;;27.10;95.20;;;;;;5002315;28;20691;-66
2023/08/13 11:14:38;;;;;;;2.77;1.50;;;27.00;95.20;;;;;;4998957;28;20475;-65
2023/08/13 11:17:05;;;;;;;2.53;1.40;;;26.80;94.00;;;;;;5006096;28;20572;-67
2023/08/13 11:19:34;;;;;;;5.90;1.90;;;26.80;94.70;;;;;;5013120;28;20473;-66
2023/08/13 11:22:02;;;;;;;2.97;1.47;;;26.80;94.40;;;;;;5000607;28;20878;-67
2023/08/13 11:24:32;;;;;;;2.10;1.57;;;26.90;96.00;;;;;;5002852;28;20474;-67
2023/08/13 11:26:59;;;;;;;2.27;1.60;;;27.30;96.10;;;;;;4996628;28;20663;-66
2023/08/13 11:29:26;;;;;;;3.23;1.30;;;;;;;;;;4999774;28;20731;-66
2023/08/13 11:31:53;;;;;;;5.00;1.53;;;27.70;95.50;;;;;;5010393;28;20455;-67
2023/08/13 11:34:20;;;;;;;6.43;1.70;;;27.80;93.90;;;;;;5016506;28;20929;-66
2023/08/13 11:36:50;;;;;;;5.33;1.30;;;28.00;95.10;;;;;;5008491;28;21020;-66
2023/08/13 11:39:18;;;;;;;3.40;1.70;;;28.10;94.20;;;;;;5018221;28;20484;-67
2023/08/13 11:41:46;;;;;;;2.50;1.00;;;27.90;94.60;;;;;;5002243;28;20559;-66
2023/08/13 11:44:13;;;;;;;3.83;1.50;;;27.90;95.60;;;;;;5000456;28;21361;-66
2023/08/13 11:46:56;;;;;;;3.90;1.80;;;27.90;95.60;;;;;;5008471;28;20486;-66
2023/08/13 11:49:23;;;;;;;9.03;1.47;;;27.80;95.40;;;;;;4994325;28;20553;-66
2023/08/13 11:51:52;;;;;;;2.60;1.50;;;27.70;95.10;;;;;;5008257;28;20987;-66
2023/08/13 11:54:20;;;;;;;3.20;1.87;;;28.20;94.00;;;;;;5008834;28;20935;-66
2023/08/13 11:56:50;;;;;;;4.43;1.40;;;28.30;93.40;;;;;;5010055;28;20482;-65
2023/08/13 11:59:25;;;;;;;2.73;1.40;;;28.20;94.20;;;;;;5002371;28;20524;-65
2023/08/13 12:01:54;;;;;;;2.63;1.87;;;28.20;94.60;;;;;;5008756;28;20572;-65
2023/08/13 12:04:22;;;;;;;2.67;1.50;;;28.10;94.50;;;;;;5000786;28;20704;-65
2023/08/13 12:06:51;;;;;;;2.90;1.97;;;27.70;94.80;;;;;;5006372;28;20476;-65
2023/08/13 12:09:18;;;;;;;7.83;1.70;;;27.50;96.60;;;;;;5003532;28;20909;-65
2023/08/13 12:11:45;;;;;;;5.23;1.60;;;27.40;94.40;;;;;;4997057;28;20498;-65
2023/08/13 12:14:12;;;;;;;3.03;1.33;;;27.30;95.20;;;;;;5004413;28;20945;-65
2023/08/13 12:16:39;;;;;;;3.47;1.80;;;27.40;95.40;;;;;;5006985;28;20571;-65
2023/08/13 12:19:06;;;;;;;5.63;1.67;;;27.60;95.70;;;;;;5002602;28;20901;-65
2023/08/13 12:21:34;;;;;;;2.60;1.40;;;27.60;95.80;;;;;;5009717;28;20453;-65
2023/08/13 12:24:05;;;;;;;4.53;1.53;;;27.80;94.70;;;;;;5006861;28;20463;-65
2023/08/13 12:26:33;;;;;;;4.00;1.77;;;28.10;95.50;;;;;;5007668;28;20483;-65
2023/08/13 12:29:02;;;;;;;4.10;1.40;;;28.20;93.10;;;;;;4998357;28;20477;-66
2023/08/13 12:31:30;;;;;;;3.87;2.03;;;28.20;93.10;;;;;;5000765;28;20489;-66
2023/08/13 12:33:57;;;;;;;2.67;1.83;;;28.60;94.30;;;;;;5011072;28;20488;-66
2023/08/13 12:36:23;;;;;;;3.23;1.57;;;28.80;93.70;;;;;;4989186;28;20479;-67
2023/08/13 12:38:50;;;;;;;4.80;1.60;;;28.90;93.60;;;;;;4996053;28;20565;-66
2023/08/13 12:41:19;;;;;;;3.33;1.50;;;28.90;95.20;;;;;;5024920;28;20776;-67
2023/08/13 12:43:47;;;;;;;5.20;1.60;;;29.10;95.00;;;;;;4998559;28;20606;-66
2023/08/13 12:46:14;;;;;;;2.67;1.57;;;29.00;93.10;;;;;;5011379;28;20488;-66
2023/08/13 12:48:41;;;;;;;4.53;1.90;;;28.90;92.80;;;;;;5007556;28;20915;-65
2023/08/13 12:51:08;;;;;;;2.77;1.60;;;28.80;93.30;;;;;;5006194;28;20837;-66
2023/08/13 12:53:36;;;;;;;1.90;1.30;;;28.70;94.90;;;;;;4988661;28;20458;-67
2023/08/13 12:56:05;;;;;;;3.50;1.53;;;28.40;92.90;;;;;;5016332;28;20610;-66